sensor_id;sensor_type;location;lat;lon;timestamp;temperature;humidity
22838;DHT22;11585;51.450;-0.240;2023-02-01T00:01:18;8.60;99.90
22838;DHT22;11585;51.450;-0.240;2023-02-01T00:03:46;8.70;99.90
22838;DHT22;11585;51.450;-0.240;2023-02-01T00:06:12;8.60;99.90
22838;DHT22;11585;51.450;-0.240;2023-02-01T00:08:38;8.60;99.90
22838;DHT22;11585;51.450;-0.240;2023-02-01T00:11:10;8.60;99.90
22838;DHT22;11585;51.450;-0.240;2023-02-01T00:13:40;8.60;99.90
22838;DHT22;11585;51.450;-0.240;2023-02-01T00:16:10;8.60;99.90
22838;DHT22;11585;51.450;-0.240;2023-02-01T00:18:37;8.60;99.90
22838;DHT22;11585;51.450;-0.240;2023-02-01T00:21:03;8.50;99.90
22838;DHT22;11585;51.450;-0.240;2023-02-01T00:26:35;8.60;99.90
22838;DHT22;11585;51.450;-0.240;2023-02-01T00:29:03;8.70;99.90
22838;DHT22;11585;51.450;-0.240;2023-02-01T00:31:29;8.50;99.90
22838;DHT22;11585;51.450;-0.240;2023-02-01T00:36:58;8.50;99.90
22838;DHT22;11585;51.450;-0.240;2023-02-01T00:39:25;8.50;99.90
22838;DHT22;11585;51.450;-0.240;2023-02-01T00:44:54;8.50;99.90
22838;DHT22;11585;51.450;-0.240;2023-02-01T00:47:20;8.50;99.90
22838;DHT22;11585;51.450;-0.240;2023-02-01T00:49:46;8.40;99.90
22838;DHT22;11585;51.450;-0.240;2023-02-01T00:52:16;8.40;99.90
22838;DHT22;11585;51.450;-0.240;2023-02-01T00:54:42;8.50;99.90
22838;DHT22;11585;51.450;-0.240;2023-02-01T00:57:08;8.40;99.90
22838;DHT22;11585;51.450;-0.240;2023-02-01T00:59:34;7.90;99.90
22838;DHT22;11585;51.450;-0.240;2023-02-01T01:01:59;9.20;99.90
22838;DHT22;11585;51.450;-0.240;2023-02-01T01:04:25;8.70;99.90
22838;DHT22;11585;51.450;-0.240;2023-02-01T01:06:51;8.40;99.90
22838;DHT22;11585;51.450;-0.240;2023-02-01T01:09:16;9.60;99.90
22838;DHT22;11585;51.450;-0.240;2023-02-01T01:11:42;9.00;99.90
22838;DHT22;11585;51.450;-0.240;2023-02-01T01:14:09;8.90;99.90
22838;DHT22;11585;51.450;-0.240;2023-02-01T01:16:35;8.70;99.90
22838;DHT22;11585;51.450;-0.240;2023-02-01T01:19:03;8.80;99.90
22838;DHT22;11585;51.450;-0.240;2023-02-01T01:21:30;8.20;99.90
22838;DHT22;11585;51.450;-0.240;2023-02-01T01:23:57;8.30;99.90
22838;DHT22;11585;51.450;-0.240;2023-02-01T01:26:25;8.20;99.90
22838;DHT22;11585;51.450;-0.240;2023-02-01T01:28:51;8.40;99.90
22838;DHT22;11585;51.450;-0.240;2023-02-01T01:31:18;8.30;99.90
22838;DHT22;11585;51.450;-0.240;2023-02-01T01:33:56;7.40;99.90
22838;DHT22;11585;51.450;-0.240;2023-02-01T01:36:22;9.60;99.90
22838;DHT22;11585;51.450;-0.240;2023-02-01T01:38:48;8.30;99.90
22838;DHT22;11585;51.450;-0.240;2023-02-01T01:41:23;8.30;99.90
22838;DHT22;11585;51.450;-0.240;2023-02-01T01:43:55;8.30;99.90
22838;DHT22;11585;51.450;-0.240;2023-02-01T01:46:36;8.30;99.90
22838;DHT22;11585;51.450;-0.240;2023-02-01T01:49:10;8.20;99.90
22838;DHT22;11585;51.450;-0.240;2023-02-01T01:54:49;8.20;99.90
22838;DHT22;11585;51.450;-0.240;2023-02-01T01:57:38;8.20;99.90
22838;DHT22;11585;51.450;-0.240;2023-02-01T02:00:14;8.30;99.90
22838;DHT22;11585;51.450;-0.240;2023-02-01T02:03:00;8.20;99.90
22838;DHT22;11585;51.450;-0.240;2023-02-01T02:05:29;8.20;99.90
22838;DHT22;11585;51.450;-0.240;2023-02-01T02:07:58;8.20;99.90
22838;DHT22;11585;51.450;-0.240;2023-02-01T02:10:25;8.20;99.90
22838;DHT22;11585;51.450;-0.240;2023-02-01T02:13:11;8.20;99.90
22838;DHT22;11585;51.450;-0.240;2023-02-01T02:15:42;8.20;99.90
22838;DHT22;11585;51.450;-0.240;2023-02-01T02:18:30;8.40;99.90
22838;DHT22;11585;51.450;-0.240;2023-02-01T02:21:17;8.20;99.90
22838;DHT22;11585;51.450;-0.240;2023-02-01T02:32:31;8.20;99.90
22838;DHT22;11585;51.450;-0.240;2023-02-01T02:38:20;8.10;99.90
22838;DHT22;11585;51.450;-0.240;2023-02-01T02:41:25;8.10;99.90
22838;DHT22;11585;51.450;-0.240;2023-02-01T02:44:10;8.10;99.90
22838;DHT22;11585;51.450;-0.240;2023-02-01T02:47:00;8.10;99.90
22838;DHT22;11585;51.450;-0.240;2023-02-01T02:50:15;8.10;99.90
22838;DHT22;11585;51.450;-0.240;2023-02-01T02:53:18;8.10;99.90
22838;DHT22;11585;51.450;-0.240;2023-02-01T02:59:26;8.10;99.90
22838;DHT22;11585;51.450;-0.240;2023-02-01T03:02:14;8.00;99.90
22838;DHT22;11585;51.450;-0.240;2023-02-01T03:04:59;8.10;99.90
22838;DHT22;11585;51.450;-0.240;2023-02-01T03:10:18;8.00;99.90
22838;DHT22;11585;51.450;-0.240;2023-02-01T03:13:11;8.00;99.90
22838;DHT22;11585;51.450;-0.240;2023-02-01T03:15:42;8.10;99.90
22838;DHT22;11585;51.450;-0.240;2023-02-01T03:18:18;8.00;99.90
22838;DHT22;11585;51.450;-0.240;2023-02-01T03:20:49;8.00;99.90
22838;DHT22;11585;51.450;-0.240;2023-02-01T03:23:37;8.00;99.90
22838;DHT22;11585;51.450;-0.240;2023-02-01T03:26:07;8.00;99.90
22838;DHT22;11585;51.450;-0.240;2023-02-01T03:28:36;8.00;99.90
22838;DHT22;11585;51.450;-0.240;2023-02-01T03:31:04;8.00;99.90
22838;DHT22;11585;51.450;-0.240;2023-02-01T03:33:31;8.00;99.90
22838;DHT22;11585;51.450;-0.240;2023-02-01T03:36:26;8.00;99.90
22838;DHT22;11585;51.450;-0.240;2023-02-01T03:41:46;8.00;99.90
22838;DHT22;11585;51.450;-0.240;2023-02-01T03:44:14;8.00;99.90
22838;DHT22;11585;51.450;-0.240;2023-02-01T03:47:10;8.00;99.90
22838;DHT22;11585;51.450;-0.240;2023-02-01T03:52:10;8.00;99.90
22838;DHT22;11585;51.450;-0.240;2023-02-01T03:54:38;8.00;99.90
22838;DHT22;11585;51.450;-0.240;2023-02-01T03:57:08;8.00;99.90
22838;DHT22;11585;51.450;-0.240;2023-02-01T03:59:42;8.20;99.90
22838;DHT22;11585;51.450;-0.240;2023-02-01T04:02:10;7.90;99.90
22838;DHT22;11585;51.450;-0.240;2023-02-01T04:04:35;8.70;99.90
22838;DHT22;11585;51.450;-0.240;2023-02-01T04:07:01;8.00;99.90
22838;DHT22;11585;51.450;-0.240;2023-02-01T04:09:27;8.40;99.90
22838;DHT22;11585;51.450;-0.240;2023-02-01T04:12:14;9.20;99.90
22838;DHT22;11585;51.450;-0.240;2023-02-01T04:14:40;7.20;99.90
22838;DHT22;11585;51.450;-0.240;2023-02-01T04:17:05;8.50;99.90
22838;DHT22;11585;51.450;-0.240;2023-02-01T04:19:31;8.00;99.90
22838;DHT22;11585;51.450;-0.240;2023-02-01T04:22:15;8.00;99.90
22838;DHT22;11585;51.450;-0.240;2023-02-01T04:24:41;8.00;99.90
22838;DHT22;11585;51.450;-0.240;2023-02-01T04:27:07;7.90;99.90
22838;DHT22;11585;51.450;-0.240;2023-02-01T04:29:33;8.00;99.90
22838;DHT22;11585;51.450;-0.240;2023-02-01T04:32:00;8.00;99.90
22838;DHT22;11585;51.450;-0.240;2023-02-01T04:34:26;8.00;99.90
22838;DHT22;11585;51.450;-0.240;2023-02-01T04:36:52;8.00;99.90
22838;DHT22;11585;51.450;-0.240;2023-02-01T04:39:18;8.00;99.90
22838;DHT22;11585;51.450;-0.240;2023-02-01T04:42:06;8.00;99.90
22838;DHT22;11585;51.450;-0.240;2023-02-01T04:44:31;8.00;99.90
22838;DHT22;11585;51.450;-0.240;2023-02-01T04:46:57;8.00;99.90
22838;DHT22;11585;51.450;-0.240;2023-02-01T04:49:24;8.00;99.90
22838;DHT22;11585;51.450;-0.240;2023-02-01T04:51:53;8.00;99.90
22838;DHT22;11585;51.450;-0.240;2023-02-01T04:54:19;8.00;99.90
22838;DHT22;11585;51.450;-0.240;2023-02-01T04:56:45;8.00;99.90
22838;DHT22;11585;51.450;-0.240;2023-02-01T04:59:11;8.00;99.90
22838;DHT22;11585;51.450;-0.240;2023-02-01T05:01:57;8.00;99.90
22838;DHT22;11585;51.450;-0.240;2023-02-01T05:04:23;8.00;99.90
22838;DHT22;11585;51.450;-0.240;2023-02-01T05:06:48;8.00;99.90
22838;DHT22;11585;51.450;-0.240;2023-02-01T05:09:14;7.90;99.90
22838;DHT22;11585;51.450;-0.240;2023-02-01T05:11:41;8.00;99.90
22838;DHT22;11585;51.450;-0.240;2023-02-01T05:14:25;8.00;99.90
22838;DHT22;11585;51.450;-0.240;2023-02-01T05:16:51;8.00;99.90
22838;DHT22;11585;51.450;-0.240;2023-02-01T05:19:16;8.00;99.90
22838;DHT22;11585;51.450;-0.240;2023-02-01T05:21:42;8.00;99.90
22838;DHT22;11585;51.450;-0.240;2023-02-01T05:24:08;8.00;99.90
22838;DHT22;11585;51.450;-0.240;2023-02-01T05:26:45;8.00;99.90
22838;DHT22;11585;51.450;-0.240;2023-02-01T05:29:11;8.70;99.90
22838;DHT22;11585;51.450;-0.240;2023-02-01T05:31:38;7.90;99.90
22838;DHT22;11585;51.450;-0.240;2023-02-01T05:34:05;7.90;99.90
22838;DHT22;11585;51.450;-0.240;2023-02-01T05:36:31;7.90;99.90
22838;DHT22;11585;51.450;-0.240;2023-02-01T05:38:57;7.90;99.90
22838;DHT22;11585;51.450;-0.240;2023-02-01T05:41:23;6.90;99.90
22838;DHT22;11585;51.450;-0.240;2023-02-01T05:47:29;8.00;99.90
22838;DHT22;11585;51.450;-0.240;2023-02-01T05:49:55;7.90;99.90
22838;DHT22;11585;51.450;-0.240;2023-02-01T05:52:23;7.90;99.90
22838;DHT22;11585;51.450;-0.240;2023-02-01T05:54:48;7.90;99.90
22838;DHT22;11585;51.450;-0.240;2023-02-01T05:57:15;7.90;99.90
22838;DHT22;11585;51.450;-0.240;2023-02-01T05:59:40;7.90;99.90
22838;DHT22;11585;51.450;-0.240;2023-02-01T06:02:11;7.90;99.90
22838;DHT22;11585;51.450;-0.240;2023-02-01T06:04:37;7.90;99.90
22838;DHT22;11585;51.450;-0.240;2023-02-01T06:07:04;8.10;99.90
22838;DHT22;11585;51.450;-0.240;2023-02-01T06:09:31;7.90;99.90
22838;DHT22;11585;51.450;-0.240;2023-02-01T06:11:57;7.90;99.90
22838;DHT22;11585;51.450;-0.240;2023-02-01T06:14:23;7.90;99.90
22838;DHT22;11585;51.450;-0.240;2023-02-01T06:16:50;8.10;99.90
22838;DHT22;11585;51.450;-0.240;2023-02-01T06:19:15;7.90;99.90
22838;DHT22;11585;51.450;-0.240;2023-02-01T06:21:41;7.90;99.90
22838;DHT22;11585;51.450;-0.240;2023-02-01T06:24:08;8.10;99.90
22838;DHT22;11585;51.450;-0.240;2023-02-01T06:26:33;7.90;99.90
22838;DHT22;11585;51.450;-0.240;2023-02-01T06:29:01;7.90;99.90
22838;DHT22;11585;51.450;-0.240;2023-02-01T06:31:27;8.30;99.90
22838;DHT22;11585;51.450;-0.240;2023-02-01T06:33:54;8.40;99.90
22838;DHT22;11585;51.450;-0.240;2023-02-01T06:36:20;8.60;99.90
22838;DHT22;11585;51.450;-0.240;2023-02-01T06:38:47;8.40;99.90
22838;DHT22;11585;51.450;-0.240;2023-02-01T06:41:15;7.90;99.90
22838;DHT22;11585;51.450;-0.240;2023-02-01T06:43:41;7.90;99.90
22838;DHT22;11585;51.450;-0.240;2023-02-01T06:46:11;7.90;99.90
22838;DHT22;11585;51.450;-0.240;2023-02-01T06:48:37;7.90;99.90
22838;DHT22;11585;51.450;-0.240;2023-02-01T06:51:03;7.60;99.90
22838;DHT22;11585;51.450;-0.240;2023-02-01T06:53:29;7.90;99.90
22838;DHT22;11585;51.450;-0.240;2023-02-01T06:55:59;8.30;99.90
22838;DHT22;11585;51.450;-0.240;2023-02-01T06:58:28;8.90;99.90
22838;DHT22;11585;51.450;-0.240;2023-02-01T07:00:54;7.90;99.90
22838;DHT22;11585;51.450;-0.240;2023-02-01T07:03:20;7.60;99.90
22838;DHT22;11585;51.450;-0.240;2023-02-01T07:05:46;7.90;99.90
22838;DHT22;11585;51.450;-0.240;2023-02-01T07:08:14;7.90;99.90
22838;DHT22;11585;51.450;-0.240;2023-02-01T07:10:39;7.90;99.90
22838;DHT22;11585;51.450;-0.240;2023-02-01T07:13:06;7.80;99.90
22838;DHT22;11585;51.450;-0.240;2023-02-01T07:15:32;8.70;99.90
22838;DHT22;11585;51.450;-0.240;2023-02-01T07:17:58;8.40;99.90
22838;DHT22;11585;51.450;-0.240;2023-02-01T07:20:24;8.90;99.90
22838;DHT22;11585;51.450;-0.240;2023-02-01T07:22:55;7.90;99.90
22838;DHT22;11585;51.450;-0.240;2023-02-01T07:25:22;8.00;99.90
22838;DHT22;11585;51.450;-0.240;2023-02-01T07:27:49;8.00;99.90
22838;DHT22;11585;51.450;-0.240;2023-02-01T07:30:14;8.90;99.90
22838;DHT22;11585;51.450;-0.240;2023-02-01T07:32:42;8.00;99.90
22838;DHT22;11585;51.450;-0.240;2023-02-01T07:35:07;8.00;99.90
22838;DHT22;11585;51.450;-0.240;2023-02-01T07:37:33;8.00;99.90
22838;DHT22;11585;51.450;-0.240;2023-02-01T07:39:59;7.90;99.90
22838;DHT22;11585;51.450;-0.240;2023-02-01T07:42:27;8.40;99.90
22838;DHT22;11585;51.450;-0.240;2023-02-01T07:44:52;8.00;99.90
22838;DHT22;11585;51.450;-0.240;2023-02-01T07:47:18;8.10;99.90
22838;DHT22;11585;51.450;-0.240;2023-02-01T07:49:45;8.00;99.90
22838;DHT22;11585;51.450;-0.240;2023-02-01T07:52:31;8.50;99.90
22838;DHT22;11585;51.450;-0.240;2023-02-01T07:54:57;8.00;99.90
22838;DHT22;11585;51.450;-0.240;2023-02-01T07:57:23;8.00;99.90
22838;DHT22;11585;51.450;-0.240;2023-02-01T07:59:48;8.00;99.90
22838;DHT22;11585;51.450;-0.240;2023-02-01T08:05:36;8.00;99.90
22838;DHT22;11585;51.450;-0.240;2023-02-01T08:08:02;8.00;99.90
22838;DHT22;11585;51.450;-0.240;2023-02-01T08:10:27;8.00;99.90
22838;DHT22;11585;51.450;-0.240;2023-02-01T08:12:58;8.00;99.90
22838;DHT22;11585;51.450;-0.240;2023-02-01T08:15:26;8.10;99.90
22838;DHT22;11585;51.450;-0.240;2023-02-01T08:17:52;8.00;99.90
22838;DHT22;11585;51.450;-0.240;2023-02-01T08:20:19;8.50;99.90
22838;DHT22;11585;51.450;-0.240;2023-02-01T08:22:50;8.00;99.90
22838;DHT22;11585;51.450;-0.240;2023-02-01T08:25:16;8.30;99.90
22838;DHT22;11585;51.450;-0.240;2023-02-01T08:27:41;8.10;99.90
22838;DHT22;11585;51.450;-0.240;2023-02-01T08:30:08;8.20;99.90
22838;DHT22;11585;51.450;-0.240;2023-02-01T08:32:39;8.00;99.90
22838;DHT22;11585;51.450;-0.240;2023-02-01T08:35:04;8.10;99.90
22838;DHT22;11585;51.450;-0.240;2023-02-01T08:37:33;8.10;99.90
22838;DHT22;11585;51.450;-0.240;2023-02-01T08:39:59;8.10;99.90
22838;DHT22;11585;51.450;-0.240;2023-02-01T08:42:24;8.10;99.90
22838;DHT22;11585;51.450;-0.240;2023-02-01T08:45:09;8.10;99.90
22838;DHT22;11585;51.450;-0.240;2023-02-01T08:47:35;8.10;99.90
22838;DHT22;11585;51.450;-0.240;2023-02-01T08:50:01;8.10;99.90
22838;DHT22;11585;51.450;-0.240;2023-02-01T08:52:26;8.10;99.90
22838;DHT22;11585;51.450;-0.240;2023-02-01T08:54:52;8.00;99.90
22838;DHT22;11585;51.450;-0.240;2023-02-01T08:57:18;8.10;99.90
22838;DHT22;11585;51.450;-0.240;2023-02-01T08:59:43;8.40;99.90
22838;DHT22;11585;51.450;-0.240;2023-02-01T09:05:13;8.10;99.90
22838;DHT22;11585;51.450;-0.240;2023-02-01T09:07:41;8.10;99.90
22838;DHT22;11585;51.450;-0.240;2023-02-01T09:10:07;8.10;99.90
22838;DHT22;11585;51.450;-0.240;2023-02-01T09:12:35;8.10;99.90
22838;DHT22;11585;51.450;-0.240;2023-02-01T09:15:01;8.10;99.90
22838;DHT22;11585;51.450;-0.240;2023-02-01T09:17:28;8.10;99.90
22838;DHT22;11585;51.450;-0.240;2023-02-01T09:19:54;8.20;99.90
22838;DHT22;11585;51.450;-0.240;2023-02-01T09:22:22;8.10;99.90
22838;DHT22;11585;51.450;-0.240;2023-02-01T09:24:52;8.20;99.90
22838;DHT22;11585;51.450;-0.240;2023-02-01T09:27:17;7.70;99.90
22838;DHT22;11585;51.450;-0.240;2023-02-01T09:29:43;8.20;99.90
22838;DHT22;11585;51.450;-0.240;2023-02-01T09:32:30;8.20;99.90
22838;DHT22;11585;51.450;-0.240;2023-02-01T09:35:09;8.20;99.90
22838;DHT22;11585;51.450;-0.240;2023-02-01T09:40:23;8.20;99.90
22838;DHT22;11585;51.450;-0.240;2023-02-01T09:43:10;8.30;99.90
22838;DHT22;11585;51.450;-0.240;2023-02-01T09:45:49;8.20;99.90
22838;DHT22;11585;51.450;-0.240;2023-02-01T09:48:24;9.10;99.90
22838;DHT22;11585;51.450;-0.240;2023-02-01T09:50:57;8.30;99.90
22838;DHT22;11585;51.450;-0.240;2023-02-01T09:53:40;8.90;99.90
22838;DHT22;11585;51.450;-0.240;2023-02-01T09:56:13;8.40;99.90
22838;DHT22;11585;51.450;-0.240;2023-02-01T09:58:44;8.40;99.90
22838;DHT22;11585;51.450;-0.240;2023-02-01T10:01:24;8.30;99.90
22838;DHT22;11585;51.450;-0.240;2023-02-01T10:04:01;7.40;99.90
22838;DHT22;11585;51.450;-0.240;2023-02-01T10:06:49;8.30;99.90
22838;DHT22;11585;51.450;-0.240;2023-02-01T10:15:43;8.40;99.90
22838;DHT22;11585;51.450;-0.240;2023-02-01T10:21:16;8.40;99.90
22838;DHT22;11585;51.450;-0.240;2023-02-01T10:24:07;7.40;99.90
22838;DHT22;11585;51.450;-0.240;2023-02-01T10:26:45;8.50;99.90
22838;DHT22;11585;51.450;-0.240;2023-02-01T10:29:27;8.70;99.90
22838;DHT22;11585;51.450;-0.240;2023-02-01T10:31:56;8.50;99.90
22838;DHT22;11585;51.450;-0.240;2023-02-01T10:34:33;8.50;99.90
22838;DHT22;11585;51.450;-0.240;2023-02-01T10:39:48;8.50;99.90
22838;DHT22;11585;51.450;-0.240;2023-02-01T10:42:18;8.50;99.90
22838;DHT22;11585;51.450;-0.240;2023-02-01T10:44:45;8.50;99.90
22838;DHT22;11585;51.450;-0.240;2023-02-01T10:47:20;8.60;99.90
22838;DHT22;11585;51.450;-0.240;2023-02-01T10:49:52;8.60;99.90
22838;DHT22;11585;51.450;-0.240;2023-02-01T10:52:51;9.20;99.90
22838;DHT22;11585;51.450;-0.240;2023-02-01T10:55:34;8.70;99.90
22838;DHT22;11585;51.450;-0.240;2023-02-01T10:58:04;8.70;99.90
22838;DHT22;11585;51.450;-0.240;2023-02-01T11:01:00;8.70;99.90
22838;DHT22;11585;51.450;-0.240;2023-02-01T11:03:34;8.70;99.90
22838;DHT22;11585;51.450;-0.240;2023-02-01T11:06:09;8.70;99.90
22838;DHT22;11585;51.450;-0.240;2023-02-01T11:08:42;8.80;99.90
22838;DHT22;11585;51.450;-0.240;2023-02-01T11:11:11;9.00;99.90
22838;DHT22;11585;51.450;-0.240;2023-02-01T11:14:13;8.80;99.90
22838;DHT22;11585;51.450;-0.240;2023-02-01T11:16:39;8.80;99.90
22838;DHT22;11585;51.450;-0.240;2023-02-01T11:19:05;9.00;99.90
22838;DHT22;11585;51.450;-0.240;2023-02-01T11:21:35;8.90;99.90
22838;DHT22;11585;51.450;-0.240;2023-02-01T11:24:03;8.90;99.90
22838;DHT22;11585;51.450;-0.240;2023-02-01T11:26:30;8.90;99.90
22838;DHT22;11585;51.450;-0.240;2023-02-01T11:29:09;9.00;99.90
22838;DHT22;11585;51.450;-0.240;2023-02-01T11:31:36;9.00;99.90
22838;DHT22;11585;51.450;-0.240;2023-02-01T11:34:24;9.00;99.90
22838;DHT22;11585;51.450;-0.240;2023-02-01T11:36:58;9.00;99.90
22838;DHT22;11585;51.450;-0.240;2023-02-01T11:39:34;9.10;99.90
22838;DHT22;11585;51.450;-0.240;2023-02-01T11:42:14;8.20;99.90
22838;DHT22;11585;51.450;-0.240;2023-02-01T11:44:46;9.10;99.90
22838;DHT22;11585;51.450;-0.240;2023-02-01T11:47:25;9.10;99.90
22838;DHT22;11585;51.450;-0.240;2023-02-01T11:49:59;9.20;99.90
22838;DHT22;11585;51.450;-0.240;2023-02-01T12:05:59;9.30;99.90
22838;DHT22;11585;51.450;-0.240;2023-02-01T12:08:51;9.40;99.90
22838;DHT22;11585;51.450;-0.240;2023-02-01T12:25:26;9.50;99.90
22838;DHT22;11585;51.450;-0.240;2023-02-01T12:28:17;9.50;99.90
22838;DHT22;11585;51.450;-0.240;2023-02-01T12:39:32;9.70;99.90
22838;DHT22;11585;51.450;-0.240;2023-02-01T12:47:26;9.70;99.90
22838;DHT22;11585;51.450;-0.240;2023-02-01T12:52:40;9.80;99.90
22838;DHT22;11585;51.450;-0.240;2023-02-01T12:55:24;9.80;99.90
22838;DHT22;11585;51.450;-0.240;2023-02-01T12:57:57;9.80;99.90
22838;DHT22;11585;51.450;-0.240;2023-02-01T13:02:59;9.90;99.90
22838;DHT22;11585;51.450;-0.240;2023-02-01T13:05:37;9.90;99.90
22838;DHT22;11585;51.450;-0.240;2023-02-01T13:08:26;10.00;99.90
22838;DHT22;11585;51.450;-0.240;2023-02-01T13:11:00;10.00;99.90
22838;DHT22;11585;51.450;-0.240;2023-02-01T13:13:37;10.00;99.90
22838;DHT22;11585;51.450;-0.240;2023-02-01T13:16:23;10.00;99.90
22838;DHT22;11585;51.450;-0.240;2023-02-01T13:18:59;10.00;99.90
22838;DHT22;11585;51.450;-0.240;2023-02-01T13:21:29;10.10;99.90
22838;DHT22;11585;51.450;-0.240;2023-02-01T13:27:01;10.10;99.90
22838;DHT22;11585;51.450;-0.240;2023-02-01T13:29:29;10.10;99.90
22838;DHT22;11585;51.450;-0.240;2023-02-01T13:37:23;10.10;99.90
22838;DHT22;11585;51.450;-0.240;2023-02-01T13:43:01;10.20;99.90
22838;DHT22;11585;51.450;-0.240;2023-02-01T13:45:35;9.50;99.90
22838;DHT22;11585;51.450;-0.240;2023-02-01T13:48:14;10.20;99.90
22838;DHT22;11585;51.450;-0.240;2023-02-01T13:50:55;10.20;99.90
22838;DHT22;11585;51.450;-0.240;2023-02-01T13:53:33;10.20;99.90
22838;DHT22;11585;51.450;-0.240;2023-02-01T13:56:11;9.40;99.90
22838;DHT22;11585;51.450;-0.240;2023-02-01T13:58:43;10.30;99.90
22838;DHT22;11585;51.450;-0.240;2023-02-01T14:01:41;10.20;99.90
22838;DHT22;11585;51.450;-0.240;2023-02-01T14:05:02;10.30;99.90
22838;DHT22;11585;51.450;-0.240;2023-02-01T14:16:34;9.30;99.90
22838;DHT22;11585;51.450;-0.240;2023-02-01T14:19:27;10.40;99.90
22838;DHT22;11585;51.450;-0.240;2023-02-01T14:25:25;10.40;99.90
22838;DHT22;11585;51.450;-0.240;2023-02-01T14:28:28;10.60;99.90
22838;DHT22;11585;51.450;-0.240;2023-02-01T14:31:13;10.40;99.90
22838;DHT22;11585;51.450;-0.240;2023-02-01T14:36:51;10.40;99.90
22838;DHT22;11585;51.450;-0.240;2023-02-01T14:53:24;10.40;99.90
22838;DHT22;11585;51.450;-0.240;2023-02-01T14:58:42;10.40;99.90
22838;DHT22;11585;51.450;-0.240;2023-02-01T15:01:21;10.50;99.90
22838;DHT22;11585;51.450;-0.240;2023-02-01T15:04:01;10.50;99.90
22838;DHT22;11585;51.450;-0.240;2023-02-01T15:15:14;10.50;99.90
22838;DHT22;11585;51.450;-0.240;2023-02-01T15:17:40;10.50;99.90
22838;DHT22;11585;51.450;-0.240;2023-02-01T15:20:13;10.50;99.90
22838;DHT22;11585;51.450;-0.240;2023-02-01T15:22:39;10.50;99.90
22838;DHT22;11585;51.450;-0.240;2023-02-01T15:25:05;10.50;99.90
22838;DHT22;11585;51.450;-0.240;2023-02-01T15:27:32;10.50;99.90
22838;DHT22;11585;51.450;-0.240;2023-02-01T15:30:16;10.50;99.90
22838;DHT22;11585;51.450;-0.240;2023-02-01T15:32:47;10.50;99.90
22838;DHT22;11585;51.450;-0.240;2023-02-01T15:35:36;10.50;99.90
22838;DHT22;11585;51.450;-0.240;2023-02-01T15:38:31;10.50;99.90
22838;DHT22;11585;51.450;-0.240;2023-02-01T15:46:28;10.50;99.90
22838;DHT22;11585;51.450;-0.240;2023-02-01T15:48:58;10.60;99.90
22838;DHT22;11585;51.450;-0.240;2023-02-01T15:51:27;10.50;99.90
22838;DHT22;11585;51.450;-0.240;2023-02-01T15:54:23;10.50;99.90
22838;DHT22;11585;51.450;-0.240;2023-02-01T15:56:54;10.60;99.90
22838;DHT22;11585;51.450;-0.240;2023-02-01T15:59:29;10.50;99.90
22838;DHT22;11585;51.450;-0.240;2023-02-01T16:02:00;10.50;99.90
22838;DHT22;11585;51.450;-0.240;2023-02-01T16:04:30;10.50;99.90
22838;DHT22;11585;51.450;-0.240;2023-02-01T16:07:03;10.50;99.90
22838;DHT22;11585;51.450;-0.240;2023-02-01T16:09:48;10.50;99.90
22838;DHT22;11585;51.450;-0.240;2023-02-01T16:12:30;10.60;99.90
22838;DHT22;11585;51.450;-0.240;2023-02-01T16:14:56;10.60;99.90
22838;DHT22;11585;51.450;-0.240;2023-02-01T16:17:22;10.60;99.90
22838;DHT22;11585;51.450;-0.240;2023-02-01T16:19:47;10.60;99.90
22838;DHT22;11585;51.450;-0.240;2023-02-01T16:25:36;10.60;99.90
22838;DHT22;11585;51.450;-0.240;2023-02-01T16:28:02;10.60;99.90
22838;DHT22;11585;51.450;-0.240;2023-02-01T16:30:28;10.60;99.90
22838;DHT22;11585;51.450;-0.240;2023-02-01T16:32:57;10.60;99.90
22838;DHT22;11585;51.450;-0.240;2023-02-01T16:37:49;10.60;99.90
22838;DHT22;11585;51.450;-0.240;2023-02-01T16:40:38;10.50;99.90
22838;DHT22;11585;51.450;-0.240;2023-02-01T16:43:14;10.50;99.90
22838;DHT22;11585;51.450;-0.240;2023-02-01T16:45:41;10.50;99.90
22838;DHT22;11585;51.450;-0.240;2023-02-01T16:48:27;10.50;99.90
22838;DHT22;11585;51.450;-0.240;2023-02-01T16:50:59;10.50;99.90
22838;DHT22;11585;51.450;-0.240;2023-02-01T16:53:30;10.50;99.90
22838;DHT22;11585;51.450;-0.240;2023-02-01T16:55:58;10.50;99.90
22838;DHT22;11585;51.450;-0.240;2023-02-01T16:58:32;10.50;99.90
22838;DHT22;11585;51.450;-0.240;2023-02-01T17:01:01;10.50;99.90
22838;DHT22;11585;51.450;-0.240;2023-02-01T17:03:51;10.50;99.90
22838;DHT22;11585;51.450;-0.240;2023-02-01T17:06:26;10.40;99.90
22838;DHT22;11585;51.450;-0.240;2023-02-01T17:09:00;10.50;99.90
22838;DHT22;11585;51.450;-0.240;2023-02-01T17:11:34;10.50;99.90
22838;DHT22;11585;51.450;-0.240;2023-02-01T17:14:21;10.40;99.90
22838;DHT22;11585;51.450;-0.240;2023-02-01T17:16:59;10.50;99.90
22838;DHT22;11585;51.450;-0.240;2023-02-01T17:19:38;10.40;99.90
22838;DHT22;11585;51.450;-0.240;2023-02-01T17:22:03;10.40;99.90
22838;DHT22;11585;51.450;-0.240;2023-02-01T17:24:30;10.30;99.90
22838;DHT22;11585;51.450;-0.240;2023-02-01T17:26:56;10.40;99.90
22838;DHT22;11585;51.450;-0.240;2023-02-01T17:29:22;10.40;99.90
22838;DHT22;11585;51.450;-0.240;2023-02-01T17:31:51;10.50;99.90
22838;DHT22;11585;51.450;-0.240;2023-02-01T17:34:17;10.50;99.90
22838;DHT22;11585;51.450;-0.240;2023-02-01T17:36:44;10.40;99.90
22838;DHT22;11585;51.450;-0.240;2023-02-01T17:39:11;10.50;99.90
22838;DHT22;11585;51.450;-0.240;2023-02-01T17:41:57;10.40;99.90
22838;DHT22;11585;51.450;-0.240;2023-02-01T17:44:23;10.40;99.90
22838;DHT22;11585;51.450;-0.240;2023-02-01T17:46:48;10.50;99.90
22838;DHT22;11585;51.450;-0.240;2023-02-01T17:49:14;10.40;99.90
22838;DHT22;11585;51.450;-0.240;2023-02-01T17:51:40;10.40;99.90
22838;DHT22;11585;51.450;-0.240;2023-02-01T17:54:11;10.50;99.90
22838;DHT22;11585;51.450;-0.240;2023-02-01T17:56:37;10.40;99.90
22838;DHT22;11585;51.450;-0.240;2023-02-01T17:59:03;10.40;99.90
22838;DHT22;11585;51.450;-0.240;2023-02-01T18:01:29;10.40;99.90
22838;DHT22;11585;51.450;-0.240;2023-02-01T18:03:54;10.50;99.90
22838;DHT22;11585;51.450;-0.240;2023-02-01T18:06:24;10.40;99.90
22838;DHT22;11585;51.450;-0.240;2023-02-01T18:08:55;10.50;99.90
22838;DHT22;11585;51.450;-0.240;2023-02-01T18:11:23;10.40;99.90
22838;DHT22;11585;51.450;-0.240;2023-02-01T18:13:50;10.40;99.90
22838;DHT22;11585;51.450;-0.240;2023-02-01T18:16:25;10.40;99.90
22838;DHT22;11585;51.450;-0.240;2023-02-01T18:18:51;10.40;99.90
22838;DHT22;11585;51.450;-0.240;2023-02-01T18:21:18;10.70;99.90
22838;DHT22;11585;51.450;-0.240;2023-02-01T18:23:45;10.40;99.90
22838;DHT22;11585;51.450;-0.240;2023-02-01T18:26:12;10.40;99.90
22838;DHT22;11585;51.450;-0.240;2023-02-01T18:28:38;10.40;99.90
22838;DHT22;11585;51.450;-0.240;2023-02-01T18:31:05;10.40;99.90
22838;DHT22;11585;51.450;-0.240;2023-02-01T18:33:31;10.40;99.90
22838;DHT22;11585;51.450;-0.240;2023-02-01T18:35:57;10.40;99.90
22838;DHT22;11585;51.450;-0.240;2023-02-01T18:38:23;10.40;99.90
22838;DHT22;11585;51.450;-0.240;2023-02-01T18:40:56;10.50;99.90
22838;DHT22;11585;51.450;-0.240;2023-02-01T18:43:23;10.40;99.90
22838;DHT22;11585;51.450;-0.240;2023-02-01T18:45:49;10.30;99.90
22838;DHT22;11585;51.450;-0.240;2023-02-01T18:48:16;10.30;99.90